Time;durP1;ratioP1;P1;durP2;ratioP2;P2;SDS_P1;SDS_P2;PMS_P1;PMS_P2;Temp;Humidity;BMP_temperature;BMP_pressure;BME280_temperature;BME280_humidity;BME280_pressure;Samples;Min_cycle;Max_cycle;Signal;HPM_P1;HPM_P2
2024/04/13 00:00:30;;;;;;;6.45;3.65;;;15.60;91.00;;;;;;5489669;26;19998;-76
2024/04/13 00:02:55;;;;;;;7.93;3.70;;;15.60;91.00;;;;;;5487820;26;20005;-78
2024/04/13 00:05:21;;;;;;;6.63;3.55;;;15.60;91.00;;;;;;5489544;26;20009;-77
2024/04/13 00:07:46;;;;;;;6.75;3.85;;;15.60;91.00;;;;;;5487528;26;19994;-78
2024/04/13 00:10:12;;;;;;;7.50;3.42;;;15.60;91.00;;;;;;5487382;26;20034;-78
2024/04/13 00:12:37;;;;;;;6.47;3.85;;;15.60;91.00;;;;;;5489477;26;19994;-78
2024/04/13 00:15:04;;;;;;;6.07;3.45;;;15.50;91.00;;;;;;5487764;26;19998;-78
2024/04/13 00:17:31;;;;;;;6.78;3.60;;;15.60;91.00;;;;;;5488002;26;19991;-78
2024/04/13 00:19:57;;;;;;;6.72;3.60;;;15.50;91.00;;;;;;5489408;26;19998;-77
2024/04/13 00:22:22;;;;;;;6.30;3.33;;;15.60;91.00;;;;;;5489420;26;20457;-77
2024/04/13 00:24:48;;;;;;;6.55;3.45;;;15.60;91.00;;;;;;5487427;26;19994;-76
2024/04/13 00:27:14;;;;;;;5.40;3.42;;;15.60;91.00;;;;;;5487785;26;19998;-80
2024/04/13 00:29:39;;;;;;;6.00;3.60;;;15.60;91.00;;;;;;5487050;26;19994;-80
2024/04/13 00:32:06;;;;;;;6.13;3.70;;;15.50;91.00;;;;;;5489570;26;20004;-78
2024/04/13 00:34:34;;;;;;;6.43;3.50;;;15.60;91.00;;;;;;5489051;26;20010;-78
2024/04/13 00:37:03;;;;;;;5.68;3.40;;;15.60;91.00;;;;;;5487359;26;20005;-78
2024/04/13 00:39:29;;;;;;;5.63;3.40;;;15.50;91.00;;;;;;5488664;26;19994;-78
2024/04/13 00:41:55;;;;;;;6.03;3.50;;;15.60;91.10;;;;;;5489326;26;20328;-79
2024/04/13 00:44:21;;;;;;;5.68;3.20;;;15.60;91.00;;;;;;5488815;26;20008;-76
2024/04/13 00:46:47;;;;;;;5.95;3.35;;;15.40;91.00;;;;;;5487021;26;19994;-78
2024/04/13 00:49:13;;;;;;;6.15;3.08;;;15.70;91.10;;;;;;5488968;26;20030;-76
2024/04/13 00:51:45;;;;;;;5.70;3.00;;;15.60;91.00;;;;;;5486502;26;20009;-76
2024/04/13 00:54:14;;;;;;;4.80;3.00;;;15.70;91.10;;;;;;5486639;26;20010;-80
2024/04/13 00:56:41;;;;;;;5.72;3.10;;;15.50;91.00;;;;;;5489051;26;20006;-78
2024/04/13 00:59:08;;;;;;;5.85;3.38;;;15.50;91.00;;;;;;5489058;26;20018;-79
2024/04/13 01:01:33;;;;;;;5.43;2.92;;;15.50;91.00;;;;;;5488608;26;20071;-77
2024/04/13 01:03:59;;;;;;;5.30;2.95;;;15.60;91.10;;;;;;5488669;26;20010;-77
2024/04/13 01:06:28;;;;;;;6.32;3.38;;;15.60;91.10;;;;;;5488713;26;19998;-79
2024/04/13 01:08:54;;;;;;;6.55;3.25;;;15.50;91.00;;;;;;5486947;26;20065;-78
2024/04/13 01:11:19;;;;;;;6.38;3.67;;;15.60;91.10;;;;;;5486740;26;20400;-78
2024/04/13 01:13:45;;;;;;;5.50;3.40;;;15.60;91.10;;;;;;5486882;26;19994;-78
2024/04/13 01:16:11;;;;;;;4.90;2.95;;;15.60;91.10;;;;;;5486687;26;20001;-78
2024/04/13 01:18:36;;;;;;;5.38;3.20;;;15.60;91.10;;;;;;5486622;26;20000;-78
2024/04/13 01:21:04;;;;;;;5.47;3.20;;;15.60;91.10;;;;;;5486361;26;19994;-77
2024/04/13 01:23:30;;;;;;;5.03;3.15;;;15.60;91.10;;;;;;5488314;26;20526;-78
2024/04/13 01:25:56;;;;;;;6.10;3.50;;;15.60;91.10;;;;;;5488216;26;20002;-78
2024/04/13 01:28:22;;;;;;;5.57;3.20;;;15.60;91.10;;;;;;5486493;26;20013;-76
2024/04/13 01:30:47;;;;;;;5.72;3.15;;;15.50;91.00;;;;;;5486460;26;19998;-78
2024/04/13 01:33:13;;;;;;;4.97;3.08;;;15.60;91.10;;;;;;5488271;26;20009;-78
2024/04/13 01:35:39;;;;;;;6.40;3.67;;;15.60;91.10;;;;;;5488336;26;19997;-78
2024/04/13 01:38:05;;;;;;;5.20;3.10;;;15.60;91.10;;;;;;5486939;26;19995;-76
2024/04/13 01:40:30;;;;;;;5.22;3.17;;;15.60;91.10;;;;;;5489779;26;20002;-78
2024/04/13 01:42:56;;;;;;;5.35;3.15;;;15.60;91.10;;;;;;5490126;26;19994;-78
2024/04/13 01:45:21;;;;;;;5.85;3.33;;;15.50;91.00;;;;;;5490096;26;19990;-78
2024/04/13 01:47:47;;;;;;;5.70;3.40;;;15.60;91.10;;;;;;5491722;26;19994;-78
2024/04/13 01:50:13;;;;;;;5.57;3.28;;;15.60;91.10;;;;;;5491181;26;20009;-78
2024/04/13 01:52:38;;;;;;;5.97;3.20;;;15.60;91.10;;;;;;5489773;26;20530;-76
2024/04/13 01:55:04;;;;;;;6.95;3.83;;;15.60;91.10;;;;;;5492004;26;20006;-78
2024/04/13 01:57:30;;;;;;;4.93;3.03;;;15.60;91.10;;;;;;5489760;26;19998;-76
2024/04/13 01:59:55;;;;;;;6.50;3.42;;;15.60;91.10;;;;;;5489570;26;20006;-78
2024/04/13 02:02:21;;;;;;;5.13;3.20;;;15.60;91.10;;;;;;5489677;26;20003;-78
2024/04/13 02:04:47;;;;;;;5.45;3.10;;;15.60;91.10;;;;;;5491487;26;19994;-78
2024/04/13 02:07:13;;;;;;;5.57;3.20;;;15.60;91.10;;;;;;5489014;26;19990;-78
2024/04/13 02:09:39;;;;;;;6.53;3.03;;;15.60;91.10;;;;;;5488984;26;20349;-78
2024/04/13 02:12:05;;;;;;;5.35;2.88;;;15.60;91.10;;;;;;5489481;26;19998;-78
2024/04/13 02:14:30;;;;;;;5.80;3.03;;;15.60;91.10;;;;;;5491594;26;20929;-79
2024/04/13 02:16:56;;;;;;;5.63;3.20;;;15.60;91.10;;;;;;5489368;26;19990;-78
2024/04/13 02:19:21;;;;;;;5.70;2.97;;;15.60;91.20;;;;;;5491171;26;20001;-78
2024/04/13 02:21:48;;;;;;;5.35;3.08;;;15.60;91.10;;;;;;5490866;26;20352;-78
2024/04/13 02:24:13;;;;;;;5.38;3.28;;;15.50;91.10;;;;;;5491262;26;19990;-78
2024/04/13 02:26:39;;;;;;;5.07;3.03;;;15.60;91.10;;;;;;5490936;26;20009;-76
2024/04/13 02:29:05;;;;;;;5.15;2.92;;;15.50;91.10;;;;;;5491319;26;19990;-77
2024/04/13 02:31:30;;;;;;;5.28;3.17;;;15.60;91.10;;;;;;5490859;26;19994;-78
2024/04/13 02:33:56;;;;;;;5.10;3.00;;;15.60;91.10;;;;;;5491118;26;20002;-78
2024/04/13 02:36:21;;;;;;;5.97;3.17;;;15.60;91.20;;;;;;5489009;26;20473;-78
2024/04/13 02:38:47;;;;;;;5.03;3.08;;;15.50;91.10;;;;;;5489101;26;19998;-78
2024/04/13 02:41:13;;;;;;;4.68;2.70;;;15.50;91.10;;;;;;5490901;26;20009;-78
2024/04/13 02:43:39;;;;;;;5.97;3.30;;;15.60;91.10;;;;;;5490705;26;20405;-77
2024/04/13 02:46:11;;;;;;;5.53;3.05;;;15.60;91.20;;;;;;5490459;26;20002;-77
2024/04/13 02:48:47;;;;;;;4.30;2.70;;;15.60;91.20;;;;;;5490862;26;19998;-78
2024/04/13 02:51:14;;;;;;;5.95;3.20;;;15.60;91.20;;;;;;5487518;26;20005;-78
2024/04/13 02:53:39;;;;;;;5.13;3.10;;;15.60;91.20;;;;;;5488896;26;19998;-77
2024/04/13 02:56:06;;;;;;;5.53;3.10;;;15.60;91.20;;;;;;5490683;26;19998;-79
2024/04/13 02:58:32;;;;;;;5.40;2.80;;;15.50;91.20;;;;;;5490637;26;20031;-78
2024/04/13 03:00:59;;;;;;;5.10;3.00;;;15.60;91.20;;;;;;5490285;26;20001;-78
2024/04/13 03:03:26;;;;;;;5.18;2.85;;;15.60;91.20;;;;;;5488550;26;20036;-78
2024/04/13 03:06:11;;;;;;;5.07;2.90;;;15.60;91.20;;;;;;5490417;26;19990;-78
2024/04/13 03:08:38;;;;;;;5.07;2.90;;;15.50;91.20;;;;;;5488498;26;19998;-77
2024/04/13 03:11:04;;;;;;;4.57;2.70;;;15.50;91.20;;;;;;5490206;26;20390;-77
2024/04/13 03:13:29;;;;;;;5.25;3.03;;;15.60;91.20;;;;;;5490174;26;19997;-78
2024/04/13 03:16:06;;;;;;;5.38;3.00;;;15.60;91.20;;;;;;5490074;26;20837;-78
2024/04/13 03:18:33;;;;;;;5.28;2.78;;;15.60;91.20;;;;;;5490540;26;19994;-79
2024/04/13 03:20:59;;;;;;;5.47;3.20;;;15.50;91.20;;;;;;5490307;26;20059;-79
2024/04/13 03:23:27;;;;;;;5.97;2.90;;;15.60;91.20;;;;;;5488361;26;19994;-78
2024/04/13 03:25:53;;;;;;;5.47;3.15;;;15.50;91.20;;;;;;5488515;26;19990;-77
2024/04/13 03:28:23;;;;;;;5.03;2.90;;;15.50;91.20;;;;;;5488278;26;19994;-78
2024/04/13 03:30:49;;;;;;;5.00;2.80;;;15.60;91.50;;;;;;5489945;26;19998;-78
2024/04/13 03:33:14;;;;;;;4.78;2.80;;;15.60;91.30;;;;;;5490652;26;20041;-78
2024/04/13 03:35:40;;;;;;;5.57;2.88;;;15.60;91.20;;;;;;5490181;26;20049;-78
2024/04/13 03:38:06;;;;;;;5.03;2.92;;;15.60;91.30;;;;;;5489936;26;19993;-78
2024/04/13 03:40:35;;;;;;;5.10;2.75;;;15.50;91.20;;;;;;5489840;26;20006;-78
2024/04/13 03:43:01;;;;;;;5.40;3.10;;;15.50;91.20;;;;;;5490261;26;20002;-78
2024/04/13 03:45:28;;;;;;;4.95;2.90;;;15.60;91.20;;;;;;5490056;26;20787;-78
2024/04/13 03:47:54;;;;;;;5.60;2.90;;;15.60;91.30;;;;;;5487896;26;20874;-77
2024/04/13 03:50:19;;;;;;;5.85;3.08;;;15.50;91.20;;;;;;5489696;26;20008;-81
2024/04/13 03:52:45;;;;;;;5.50;2.83;;;15.50;91.20;;;;;;5489824;26;20374;-78
2024/04/13 03:55:10;;;;;;;5.22;3.03;;;15.60;91.30;;;;;;5489708;26;20001;-78
2024/04/13 03:57:36;;;;;;;5.07;2.67;;;15.60;91.30;;;;;;5489612;26;20037;-77
2024/04/13 04:00:05;;;;;;;5.32;2.83;;;15.60;91.20;;;;;;5487274;26;20005;-77
2024/04/13 04:02:31;;;;;;;6.47;2.95;;;15.60;91.20;;;;;;5489682;26;20400;-77
2024/04/13 04:04:57;;;;;;;5.22;2.72;;;15.60;91.20;;;;;;5487573;26;19994;-77
2024/04/13 04:07:22;;;;;;;5.13;3.00;;;15.60;91.20;;;;;;5489257;26;20009;-77
2024/04/13 04:09:48;;;;;;;4.50;2.60;;;15.60;91.20;;;;;;5487324;26;20453;-77
2024/04/13 04:12:13;;;;;;;5.25;2.90;;;15.50;91.20;;;;;;5487711;26;20067;-77
2024/04/13 04:14:39;;;;;;;5.57;3.03;;;15.50;91.20;;;;;;5489594;26;19990;-76
2024/04/13 04:17:05;;;;;;;4.63;2.80;;;15.40;91.20;;;;;;5489487;26;19994;-76
2024/04/13 04:19:32;;;;;;;5.47;3.05;;;15.50;91.20;;;;;;5489068;26;20010;-77
2024/04/13 04:21:57;;;;;;;5.32;2.83;;;15.60;91.30;;;;;;5487593;26;19994;-77
2024/04/13 04:24:23;;;;;;;6.13;3.05;;;15.60;91.20;;;;;;5489017;26;20070;-77
2024/04/13 04:26:49;;;;;;;5.38;3.03;;;15.60;91.30;;;;;;5489340;26;20005;-78
2024/04/13 04:29:16;;;;;;;6.68;3.10;;;15.50;91.20;;;;;;5457232;26;20510;-79
2024/04/13 04:31:42;;;;;;;5.78;3.30;;;15.70;91.30;;;;;;5489404;26;20005;-77
2024/04/13 04:34:08;;;;;;;4.63;2.92;;;15.60;91.30;;;;;;5489462;26;20008;-76
2024/04/13 04:36:34;;;;;;;4.93;3.05;;;15.50;91.30;;;;;;5487336;26;19994;-78
2024/04/13 04:38:59;;;;;;;4.82;2.70;;;15.40;91.20;;;;;;5489107;26;20005;-78
2024/04/13 04:41:28;;;;;;;5.20;2.90;;;15.60;91.30;;;;;;5487258;26;19994;-79
2024/04/13 04:43:54;;;;;;;7.00;3.28;;;15.60;91.30;;;;;;5489117;26;19994;-77
2024/04/13 04:46:21;;;;;;;4.43;2.70;;;15.60;91.30;;;;;;5487241;26;20006;-76
2024/04/13 04:48:50;;;;;;;4.18;2.60;;;15.50;91.30;;;;;;5488803;26;20392;-77
2024/04/13 04:51:19;;;;;;;4.97;2.70;;;15.60;91.30;;;;;;5488675;26;20475;-78
2024/04/13 04:53:44;;;;;;;5.32;3.00;;;15.60;91.30;;;;;;5489175;26;19998;-78
2024/04/13 04:56:10;;;;;;;5.78;3.30;;;15.60;91.30;;;;;;5488600;26;20070;-79
2024/04/13 04:58:36;;;;;;;4.82;2.90;;;15.60;91.30;;;;;;5488951;26;20004;-78
2024/04/13 05:01:02;;;;;;;4.93;3.05;;;15.60;91.30;;;;;;5487848;26;19994;-80
2024/04/13 05:03:28;;;;;;;4.78;2.88;;;15.50;91.30;;;;;;5488552;26;20335;-78
2024/04/13 05:05:54;;;;;;;4.55;2.72;;;15.60;91.30;;;;;;5488476;26;19990;-78
2024/04/13 05:08:20;;;;;;;5.03;3.00;;;15.60;91.30;;;;;;5486635;26;19998;-78
2024/04/13 05:10:46;;;;;;;4.70;2.95;;;15.60;91.40;;;;;;5486702;26;20004;-77
2024/04/13 05:13:13;;;;;;;4.57;2.80;;;15.60;91.40;;;;;;5487672;26;20798;-79
2024/04/13 05:15:40;;;;;;;5.50;3.10;;;15.60;91.30;;;;;;5492195;26;19994;-77
2024/04/13 05:18:06;;;;;;;4.80;2.47;;;15.60;91.40;;;;;;5489989;26;19994;-78
2024/04/13 05:20:31;;;;;;;5.50;2.88;;;15.50;91.30;;;;;;5491878;26;20066;-76
2024/04/13 05:22:58;;;;;;;4.18;2.63;;;15.60;91.40;;;;;;5490550;26;19998;-77
2024/04/13 05:25:24;;;;;;;4.55;2.70;;;15.50;91.40;;;;;;5490001;26;20010;-77
2024/04/13 05:27:49;;;;;;;5.60;2.95;;;15.50;91.30;;;;;;5492018;26;20777;-77
2024/04/13 05:30:15;;;;;;;5.22;3.22;;;15.50;91.30;;;;;;5491733;26;20002;-77
2024/04/13 05:32:41;;;;;;;5.22;2.90;;;15.60;91.30;;;;;;5488225;26;20002;-79
2024/04/13 05:35:06;;;;;;;4.68;2.90;;;15.60;91.30;;;;;;5488302;26;20010;-80
2024/04/13 05:37:33;;;;;;;5.25;2.92;;;15.60;91.30;;;;;;5487632;26;20386;-79
2024/04/13 05:39:58;;;;;;;5.28;3.08;;;15.60;91.20;;;;;;5488133;26;20054;-79
2024/04/13 05:42:24;;;;;;;5.35;2.75;;;15.60;91.20;;;;;;5480443;26;19994;-79
2024/04/13 05:44:49;;;;;;;5.00;2.53;;;15.50;91.20;;;;;;5487668;26;20041;-80
2024/04/13 05:47:15;;;;;;;5.13;3.10;;;15.50;91.20;;;;;;5486603;26;20002;-78
2024/04/13 05:49:41;;;;;;;5.53;3.10;;;15.60;91.20;;;;;;5487646;26;20451;-79
2024/04/13 05:52:07;;;;;;;5.45;3.05;;;15.60;91.20;;;;;;5488135;26;20006;-79
2024/04/13 05:54:32;;;;;;;6.65;3.17;;;15.70;91.20;;;;;;5486903;26;20403;-79
2024/04/13 05:56:58;;;;;;;4.90;2.85;;;15.70;91.20;;;;;;5486762;26;20200;-81
2024/04/13 05:59:23;;;;;;;4.97;3.03;;;15.70;91.20;;;;;;5488329;26;19999;-79
2024/04/13 06:01:49;;;;;;;5.35;3.00;;;15.70;91.20;;;;;;5488364;26;19994;-78
2024/04/13 06:04:15;;;;;;;5.28;2.70;;;15.60;91.10;;;;;;5526256;25;20012;-78
2024/04/13 06:06:41;;;;;;;5.60;3.00;;;15.70;91.10;;;;;;5522136;25;20009;-77
2024/04/13 06:09:07;;;;;;;5.47;2.90;;;15.50;91.10;;;;;;5488723;26;20008;-78
2024/04/13 06:11:33;;;;;;;6.45;3.08;;;15.70;91.10;;;;;;5488251;26;19998;-79
2024/04/13 06:13:58;;;;;;;5.10;3.00;;;15.80;91.10;;;;;;5489665;26;19998;-80
2024/04/13 06:16:24;;;;;;;5.22;2.92;;;15.70;91.30;;;;;;5487439;26;19998;-80
2024/04/13 06:18:50;;;;;;;5.50;2.95;;;15.70;91.10;;;;;;5516918;26;19998;-79
2024/04/13 06:21:16;;;;;;;6.05;3.15;;;15.70;91.10;;;;;;5487086;26;19990;-78
2024/04/13 06:23:42;;;;;;;4.20;2.50;;;15.60;91.00;;;;;;5487711;26;20342;-80
2024/04/13 06:26:07;;;;;;;5.38;2.88;;;15.70;91.30;;;;;;5507666;26;20006;-79
2024/04/13 06:28:33;;;;;;;5.32;2.90;;;15.70;91.00;;;;;;5553565;25;20441;-79
2024/04/13 06:30:59;;;;;;;4.88;2.90;;;15.80;91.00;;;;;;5552859;25;19997;-80
2024/04/13 06:33:24;;;;;;;4.75;2.75;;;15.70;91.00;;;;;;5523688;26;19997;-79
2024/04/13 06:35:50;;;;;;;4.68;2.70;;;15.70;91.00;;;;;;5523564;25;20004;-79
2024/04/13 06:38:23;;;;;;;5.20;2.70;;;15.80;91.00;;;;;;5524103;26;20005;-79
2024/04/13 06:40:53;;;;;;;5.32;2.75;;;15.60;90.90;;;;;;5552976;25;19994;-78
2024/04/13 06:43:19;;;;;;;4.90;2.80;;;15.80;91.00;;;;;;5524254;26;19997;-79
2024/04/13 06:45:46;;;;;;;4.88;2.63;;;15.70;90.90;;;;;;5554028;25;20001;-80
2024/04/13 06:48:12;;;;;;;5.22;2.85;;;15.80;90.90;;;;;;5525921;25;19998;-79
2024/04/13 06:50:37;;;;;;;4.93;3.05;;;15.80;91.00;;;;;;5554710;25;20004;-79
2024/04/13 06:53:03;;;;;;;5.00;2.70;;;15.80;90.90;;;;;;5554217;25;20917;-78
2024/04/13 06:55:29;;;;;;;4.45;2.60;;;15.80;91.00;;;;;;5554349;25;20004;-79
2024/04/13 06:57:54;;;;;;;4.45;2.40;;;15.70;90.90;;;;;;5525399;25;19997;-78
2024/04/13 07:00:20;;;;;;;6.25;3.08;;;15.80;91.00;;;;;;5555400;25;20069;-81
2024/04/13 07:02:47;;;;;;;5.70;3.22;;;15.80;90.90;;;;;;5553577;25;20004;-79
2024/04/13 07:05:13;;;;;;;5.70;3.35;;;15.70;90.90;;;;;;5553296;25;19994;-80
2024/04/13 07:07:39;;;;;;;5.15;2.83;;;15.80;90.90;;;;;;5552571;25;20001;-80
2024/04/13 07:10:06;;;;;;;5.43;2.88;;;15.80;90.90;;;;;;5552626;25;20064;-79
2024/04/13 07:12:31;;;;;;;5.03;2.80;;;15.80;90.90;;;;;;5524107;25;20001;-81
2024/04/13 07:14:57;;;;;;;4.90;2.80;;;15.80;90.90;;;;;;5553149;25;20891;-78
2024/04/13 07:17:24;;;;;;;5.05;2.78;;;15.90;90.80;;;;;;5552401;25;19998;-80
2024/04/13 07:19:50;;;;;;;4.05;2.67;;;15.90;90.80;;;;;;5552207;25;20012;-80
2024/04/13 07:22:16;;;;;;;4.72;2.65;;;15.80;90.70;;;;;;5552294;25;20438;-80
2024/04/13 07:24:42;;;;;;;4.38;2.63;;;15.90;90.70;;;;;;5522888;25;20057;-78
2024/04/13 07:27:08;;;;;;;5.45;2.80;;;15.90;90.70;;;;;;5523085;25;20005;-79
2024/04/13 07:29:33;;;;;;;4.97;2.75;;;16.00;90.70;;;;;;5552132;25;20021;-80
2024/04/13 07:31:59;;;;;;;5.38;2.42;;;16.00;90.70;;;;;;5552444;25;20001;-79
2024/04/13 07:34:24;;;;;;;4.65;2.60;;;16.00;90.60;;;;;;5552813;25;20017;-79
2024/04/13 07:36:50;;;;;;;4.82;2.60;;;16.00;90.70;;;;;;5551173;25;20012;-79
2024/04/13 07:39:15;;;;;;;4.63;2.67;;;16.00;90.60;;;;;;5552969;25;19998;-80
2024/04/13 07:41:41;;;;;;;4.47;2.63;;;16.00;90.60;;;;;;5525621;25;20001;-81
2024/04/13 07:44:07;;;;;;;4.50;2.45;;;16.00;90.60;;;;;;5553074;25;20013;-80
2024/04/13 07:46:33;;;;;;;4.25;2.33;;;16.00;90.60;;;;;;5522791;26;19994;-80
2024/04/13 07:48:59;;;;;;;4.30;2.70;;;16.10;90.60;;;;;;5551926;25;20323;-80
2024/04/13 07:51:25;;;;;;;5.38;2.53;;;16.10;90.60;;;;;;5551875;25;20053;-79
2024/04/13 07:53:50;;;;;;;4.78;2.30;;;16.00;90.50;;;;;;5523058;25;20007;-80
2024/04/13 07:56:16;;;;;;;4.55;2.63;;;16.10;90.60;;;;;;5552249;25;20005;-79
2024/04/13 07:58:42;;;;;;;5.00;2.80;;;16.20;90.60;;;;;;5521088;26;20001;-80
2024/04/13 08:01:07;;;;;;;4.53;2.45;;;16.10;90.50;;;;;;5522510;26;20357;-80
2024/04/13 08:03:33;;;;;;;4.55;2.55;;;16.20;90.50;;;;;;5523683;26;20005;-80
2024/04/13 08:05:59;;;;;;;3.95;2.40;;;16.10;90.50;;;;;;5552153;25;20001;-80
2024/04/13 08:08:25;;;;;;;4.65;2.60;;;16.10;90.50;;;;;;5522611;25;20528;-80
2024/04/13 08:10:51;;;;;;;4.45;2.65;;;16.10;90.40;;;;;;5522157;26;20008;-79
2024/04/13 08:13:16;;;;;;;5.07;2.90;;;16.20;90.40;;;;;;5522712;26;20061;-80
2024/04/13 08:15:42;;;;;;;4.60;2.53;;;16.20;90.40;;;;;;5551181;25;20725;-79
2024/04/13 08:18:08;;;;;;;3.65;2.35;;;16.20;90.40;;;;;;5551577;25;20089;-80
2024/04/13 08:20:34;;;;;;;4.85;2.42;;;16.20;90.40;;;;;;5522005;26;20002;-79
2024/04/13 08:23:00;;;;;;;4.32;2.40;;;16.20;90.40;;;;;;5551450;25;20070;-81
2024/04/13 08:25:27;;;;;;;4.93;2.60;;;16.20;90.40;;;;;;5553417;25;20001;-78
2024/04/13 08:27:53;;;;;;;4.63;2.47;;;16.10;90.30;;;;;;5522407;25;20021;-80
2024/04/13 08:30:18;;;;;;;4.15;2.47;;;16.10;90.30;;;;;;5522144;25;19994;-79
2024/04/13 08:32:48;;;;;;;3.88;2.20;;;16.20;90.40;;;;;;5522604;26;20034;-79
2024/04/13 08:35:13;;;;;;;3.70;2.13;;;16.20;90.40;;;;;;5551733;25;20008;-80
2024/04/13 08:37:39;;;;;;;4.35;2.40;;;16.30;90.40;;;;;;5551629;25;19998;-78
2024/04/13 08:40:05;;;;;;;4.03;2.33;;;16.20;90.40;;;;;;5551454;25;20016;-80
2024/04/13 08:42:36;;;;;;;4.13;2.30;;;16.20;90.40;;;;;;5522309;25;20831;-79
2024/04/13 08:45:04;;;;;;;3.70;2.20;;;16.30;90.40;;;;;;5550963;25;20706;-81
2024/04/13 08:47:32;;;;;;;3.97;2.13;;;16.20;90.40;;;;;;5523036;25;19997;-81
2024/04/13 08:49:59;;;;;;;4.30;2.38;;;16.30;90.40;;;;;;5553288;25;20002;-79
2024/04/13 08:52:26;;;;;;;4.68;2.53;;;16.20;90.40;;;;;;5522534;25;20005;-80
2024/04/13 08:54:52;;;;;;;4.40;2.30;;;16.20;90.40;;;;;;5522357;25;20037;-81
2024/04/13 08:57:25;;;;;;;4.13;2.28;;;16.30;90.40;;;;;;5522293;25;19993;-79
2024/04/13 08:59:52;;;;;;;4.43;2.20;;;16.30;90.40;;;;;;5551725;25;19997;-79
2024/04/13 09:02:22;;;;;;;3.92;2.40;;;16.20;90.40;;;;;;5522555;25;20427;-79
2024/04/13 09:04:51;;;;;;;4.60;2.17;;;16.30;90.40;;;;;;5521760;25;20020;-79
2024/04/13 09:07:21;;;;;;;3.70;2.20;;;16.30;90.40;;;;;;5522241;25;20009;-79
2024/04/13 09:09:50;;;;;;;4.05;2.05;;;16.30;90.40;;;;;;5522095;25;20066;-79
2024/04/13 09:12:16;;;;;;;3.72;2.00;;;16.30;90.40;;;;;;5551521;25;20428;-79
2024/04/13 09:14:42;;;;;;;4.28;2.33;;;16.30;90.40;;;;;;5554084;25;19998;-81
2024/04/13 09:17:08;;;;;;;3.90;2.10;;;16.30;90.40;;;;;;5522945;25;19997;-79
2024/04/13 09:19:33;;;;;;;3.70;2.25;;;16.30;90.40;;;;;;5521770;26;19994;-79
2024/04/13 09:22:01;;;;;;;3.67;1.90;;;16.40;90.40;;;;;;5522017;26;20307;-79
2024/04/13 09:24:26;;;;;;;4.68;2.33;;;16.40;90.40;;;;;;5551115;25;20015;-79
2024/04/13 09:26:52;;;;;;;4.32;2.30;;;16.40;90.40;;;;;;5521761;26;20442;-80
2024/04/13 09:29:27;;;;;;;4.93;2.40;;;16.40;90.30;;;;;;5551094;25;20749;-80
2024/04/13 09:31:53;;;;;;;4.65;2.20;;;16.40;90.30;;;;;;5521671;26;20065;-79
2024/04/13 09:34:19;;;;;;;4.07;2.30;;;16.50;90.40;;;;;;5521586;25;20033;-79
2024/04/13 09:36:46;;;;;;;5.20;2.50;;;16.40;90.30;;;;;;5521976;26;20505;-79
2024/04/13 09:39:22;;;;;;;4.72;2.38;;;16.40;90.30;;;;;;5550899;25;19989;-79
2024/04/13 09:41:49;;;;;;;4.43;2.30;;;16.50;90.30;;;;;;5521619;26;20006;-81
2024/04/13 09:44:30;;;;;;;4.43;2.40;;;16.50;90.30;;;;;;5521365;25;19993;-78
2024/04/13 09:46:56;;;;;;;5.28;2.47;;;16.50;90.30;;;;;;5521374;25;20012;-79
2024/04/13 09:49:22;;;;;;;4.28;2.25;;;16.40;90.30;;;;;;5521733;25;19994;-79
2024/04/13 09:51:50;;;;;;;4.28;2.35;;;16.50;90.30;;;;;;5542381;25;19994;-79
2024/04/13 09:54:16;;;;;;;4.05;2.28;;;16.40;90.30;;;;;;5484645;26;20006;-79
2024/04/13 09:56:48;;;;;;;7.35;2.75;;;16.40;90.30;;;;;;5485175;26;20532;-79
2024/04/13 09:59:17;;;;;;;4.68;2.38;;;16.40;90.40;;;;;;5485641;26;20002;-79
2024/04/13 10:01:44;;;;;;;11.98;3.28;;;16.40;90.40;;;;;;5487976;26;19998;-78
2024/04/13 10:04:09;;;;;;;13.95;2.75;;;16.50;90.40;;;;;;5487238;26;19998;-78
2024/04/13 10:06:37;;;;;;;11.07;2.80;;;16.50;90.40;;;;;;5488433;26;19998;-78
2024/04/13 10:09:06;;;;;;;12.38;2.40;;;16.40;90.40;;;;;;5486908;26;20034;-81
2024/04/13 10:11:38;;;;;;;7.78;2.63;;;16.40;90.40;;;;;;5488154;26;20012;-79
2024/04/13 10:14:06;;;;;;;11.55;2.97;;;16.50;90.50;;;;;;5486030;26;20071;-79
2024/04/13 10:16:32;;;;;;;8.60;2.30;;;16.50;90.40;;;;;;5487717;26;19990;-80
2024/04/13 10:18:59;;;;;;;9.30;2.88;;;16.40;90.40;;;;;;5485232;26;20002;-79
2024/04/13 10:21:25;;;;;;;7.00;2.55;;;16.40;90.40;;;;;;5487078;26;19994;-79
2024/04/13 10:23:54;;;;;;;10.57;2.65;;;16.40;90.40;;;;;;5488243;26;20008;-78
2024/04/13 10:26:27;;;;;;;8.27;2.47;;;16.50;90.40;;;;;;5486672;26;20009;-78
2024/04/13 10:29:00;;;;;;;12.43;2.90;;;16.50;90.40;;;;;;5487895;26;20001;-81
2024/04/13 10:31:27;;;;;;;12.70;2.80;;;16.40;90.40;;;;;;5488782;26;20001;-79
2024/04/13 10:33:55;;;;;;;12.93;2.60;;;16.50;90.40;;;;;;5487230;26;20134;-79
2024/04/13 10:36:31;;;;;;;16.13;3.10;;;16.50;90.40;;;;;;5487815;26;20245;-81
2024/04/13 10:38:58;;;;;;;9.23;3.00;;;16.50;90.40;;;;;;5488341;26;20090;-78
2024/04/13 10:41:31;;;;;;;12.27;3.10;;;16.50;90.40;;;;;;5487904;26;20009;-79
2024/04/13 10:43:58;;;;;;;10.23;2.75;;;16.50;90.50;;;;;;5485364;26;19991;-78
2024/04/13 10:46:24;;;;;;;9.60;2.78;;;16.50;90.40;;;;;;5488101;26;20002;-79
2024/04/13 10:48:52;;;;;;;9.50;2.90;;;16.50;90.40;;;;;;5487902;26;20006;-80
2024/04/13 10:51:18;;;;;;;12.18;2.67;;;16.50;90.40;;;;;;5488031;26;19994;-79
2024/04/13 10:53:44;;;;;;;9.73;2.72;;;16.50;90.40;;;;;;5485987;26;20074;-79
2024/04/13 10:56:10;;;;;;;9.57;2.25;;;16.40;90.40;;;;;;5488141;26;20789;-80
2024/04/13 10:58:36;;;;;;;9.25;2.85;;;16.50;90.40;;;;;;5487565;26;19991;-79
2024/04/13 11:01:03;;;;;;;11.57;2.45;;;16.50;90.40;;;;;;5487585;26;20005;-78
2024/04/13 11:03:30;;;;;;;9.07;2.90;;;16.50;90.40;;;;;;5485917;26;20427;-79
2024/04/13 11:05:57;;;;;;;10.50;2.55;;;16.60;90.40;;;;;;5487481;26;20012;-79
2024/04/13 11:08:23;;;;;;;9.02;2.72;;;16.50;90.40;;;;;;5487146;26;20008;-79
2024/04/13 11:10:53;;;;;;;10.90;2.78;;;16.50;90.50;;;;;;5486218;26;19999;-79
2024/04/13 11:13:19;;;;;;;8.70;3.00;;;16.50;90.50;;;;;;5486854;26;19998;-80
2024/04/13 11:15:45;;;;;;;11.60;3.63;;;16.60;90.50;;;;;;5487612;26;19994;-79
2024/04/13 11:18:11;;;;;;;10.52;2.97;;;16.40;90.50;;;;;;5486954;26;20060;-79
2024/04/13 11:20:38;;;;;;;11.93;3.42;;;16.50;90.50;;;;;;5486510;26;19994;-79
2024/04/13 11:23:05;;;;;;;13.25;3.88;;;16.60;90.60;;;;;;5487271;26;20006;-79
2024/04/13 11:25:30;;;;;;;9.57;3.40;;;16.60;90.60;;;;;;5487682;26;20006;-80
2024/04/13 11:27:57;;;;;;;8.55;3.30;;;16.60;90.50;;;;;;5487932;26;20392;-82
2024/04/13 11:30:24;;;;;;;8.95;3.53;;;16.50;90.50;;;;;;5487889;26;20038;-83
2024/04/13 11:32:51;;;;;;;12.18;3.42;;;16.60;90.60;;;;;;5486256;26;20031;-82
2024/04/13 11:35:17;;;;;;;8.45;3.13;;;16.60;90.60;;;;;;5485985;26;19994;-82
2024/04/13 11:37:59;;;;;;;8.90;3.00;;;16.60;90.60;;;;;;5488137;26;19994;-82
2024/04/13 11:40:37;;;;;;;8.32;3.13;;;16.50;90.60;;;;;;5485357;26;19992;-81
2024/04/13 11:43:03;;;;;;;8.93;3.20;;;16.50;90.60;;;;;;5487008;26;20018;-81
2024/04/13 11:45:30;;;;;;;8.57;2.97;;;16.40;90.60;;;;;;5487265;26;20010;-81
2024/04/13 11:47:56;;;;;;;9.85;3.20;;;16.40;90.60;;;;;;5485108;26;19998;-82
2024/04/13 11:50:23;;;;;;;9.95;2.97;;;16.50;90.60;;;;;;5487454;26;20005;-81
2024/04/13 11:52:49;;;;;;;8.32;3.08;;;16.50;90.60;;;;;;5485357;26;20005;-80
2024/04/13 11:55:23;;;;;;;9.23;3.35;;;16.50;90.60;;;;;;5486486;26;19998;-80
2024/04/13 11:57:49;;;;;;;8.57;3.10;;;16.50;90.60;;;;;;5485686;26;19998;-82
2024/04/13 12:00:16;;;;;;;7.10;2.70;;;16.50;90.60;;;;;;5486507;26;19994;-83
2024/04/13 12:02:44;;;;;;;8.05;2.55;;;16.50;90.80;;;;;;5485230;26;19994;-81
2024/04/13 12:05:09;;;;;;;6.85;2.63;;;16.50;90.60;;;;;;5487539;26;20580;-82
2024/04/13 12:07:35;;;;;;;7.57;2.70;;;16.40;90.60;;;;;;5485249;26;19991;-82
2024/04/13 12:10:01;;;;;;;7.60;2.80;;;16.50;90.60;;;;;;5484935;26;19998;-82
2024/04/13 12:12:26;;;;;;;8.10;2.72;;;16.50;90.60;;;;;;5486808;26;20006;-82
2024/04/13 12:14:53;;;;;;;6.50;2.40;;;16.50;90.60;;;;;;5486330;26;20005;-81
2024/04/13 12:17:19;;;;;;;6.78;2.78;;;16.50;90.60;;;;;;5486812;26;20001;-81
2024/04/13 12:19:45;;;;;;;5.45;2.42;;;16.50;90.60;;;;;;5486326;26;20009;-80
2024/04/13 12:22:11;;;;;;;6.28;2.83;;;16.40;90.50;;;;;;5485133;26;20002;-80
2024/04/13 12:24:37;;;;;;;30.92;4.43;;;16.50;90.50;;;;;;5486505;26;20018;-80
2024/04/13 12:27:04;;;;;;;51.00;6.95;;;16.60;90.90;;;;;;5484815;26;20095;-81
2024/04/13 12:29:31;;;;;;;36.25;5.88;;;16.60;91.00;;;;;;5484935;26;20018;-82
2024/04/13 12:31:57;;;;;;;30.38;6.03;;;16.60;91.30;;;;;;5485167;26;20009;-82
2024/04/13 12:47:38;;;;;;;20.73;4.50;;;16.60;90.90;;;;;;5414125;26;20047;-82
2024/04/13 13:11:08;;;;;;;18.35;4.60;;;16.60;90.80;;;;;;5484313;26;20368;-81
2024/04/13 13:13:34;;;;;;;12.52;3.88;;;16.60;90.80;;;;;;5454508;26;20007;-81
2024/04/13 13:16:00;;;;;;;12.70;3.85;;;16.50;90.70;;;;;;5455280;26;20003;-82